Flight Track Log - Related Links

Times and Time Zones

All times are in EDT time to prevent confusion due to time zone crossing. See the PDT4378 flight status page for this flight to view local times or setup timezone preferences in your user account.

Time Position Orientation Groundspeed Altitude Reporting Facility
EDT Latitude Longitude Course Direction KTS MPH feet Rate Location/Type
Sat 09:20:13 AM 41.9722 -72.7372 313° West 122 140 3,000  Level Boston Center
Sat 09:21:14 AM 41.9814 -72.7719 290° West 104 120 4,100 1,033 Climbing Boston Center
Sat 09:22:00 AM 42.0239 -72.9667 North  Level FlightAware Approximate
Sat 09:22:15 AM 41.9872 -72.8194 279° West 125 144 5,100  Level Boston Center
Sat 09:23:00 AM 42.0413 -73.0320 289° West  Level FlightAware Approximate
Sat 09:23:16 AM 42.0053 -72.8686 296° West 134 154 6,200  Level Boston Center
Sat 09:24:00 AM 42.0667 -73.1031 270° West  Level FlightAware Approximate
Sat 09:24:17 AM 42.0217 -72.9139 296° West 134 154 7,500  Level Boston Center
Sat 09:25:18 AM 42.0381 -72.9561 298° West 133 153 8,400 885 Climbing Boston Center
Sat 09:26:19 AM 42.0594 -72.9997 303° West 134 154 9,300 836 Climbing Boston Center
Sat 09:27:20 AM 42.0722 -73.0494 289° West 141 162 10,100 787 Climbing Boston Center
Sat 09:28:21 AM 42.0733 -73.1061 272° West 143 165 10,900 787 Climbing Boston Center
Sat 09:29:22 AM 42.0589 -73.1606 250° West 155 178 11,700 787 Climbing Boston Center
Sat 09:30:23 AM 42.0428 -73.2158 249° West 157 181 12,500 836 Climbing Boston Center
Sat 09:31:24 AM 42.0331 -73.2703 256° West 155 178 13,400 934 Climbing Boston Center
Sat 09:32:25 AM 42.0181 -73.3289 251° West 154 177 14,400 885 Climbing Boston Center
Sat 09:33:26 AM 42.0044 -73.3794 250° West 154 177 15,200 738 Climbing Boston Center
Sat 09:34:27 AM 41.9908 -73.4339 251° West 148 170 15,900 393 Climbing Boston Center
Sat 09:35:28 AM 41.9775 -73.4883 252° West 156 180 16,000 49 Climbing Boston Center
Sat 09:36:29 AM 41.9581 -73.5511 247° West 181 208 16,000  Level Boston Center
Sat 09:37:30 AM 41.9414 -73.6158 251° West 182 209 16,000  Level Boston Center
Sat 09:38:31 AM 41.9300 -73.6869 258° West 182 209 16,000  Level Boston Center
Sat 09:39:32 AM 41.9142 -73.7536 252° West 184 212 16,000  Level Boston Center
Sat 09:40:33 AM 41.8992 -73.8203 253° West 185 213 16,000  Level Boston Center
Sat 09:41:34 AM 41.8836 -73.8869 253° West 185 213 16,000  Level Boston Center
Sat 09:42:35 AM 41.8653 -73.9586 251° West 186 214 16,000  Level Boston Center
Sat 09:43:36 AM 41.8467 -74.0239 249° West 187 215 16,000  Level Boston Center
Sat 09:44:37 AM 41.8286 -74.0928 251° West 193 222 16,000  Level Boston Center
Sat 09:45:38 AM 41.8139 -74.1619 254° West 194 223 16,000  Level Boston Center
Sat 09:46:39 AM 41.7972 -74.2297 252° West 194 223 16,000  Level Boston Center
Sat 09:47:40 AM 41.7786 -74.3033 251° West 194 223 16,000  Level Boston Center
Sat 09:48:41 AM 41.7622 -74.3706 252° West 194 223 16,000 -49 Level Boston Center
Sat 09:49:42 AM 41.7417 -74.4381 248° West 194 223 15,900 -49 Descending Boston Center
Sat 09:50:43 AM 41.7244 -74.5050 251° West 194 223 15,900 49 Level Boston Center
Sat 09:51:44 AM 41.7036 -74.5775 249° West 194 223 16,000 49 Climbing Boston Center
Sat 09:52:45 AM 41.6875 -74.6469 253° West 196 226 16,000  Level Boston Center
Sat 09:53:46 AM 41.6728 -74.7189 255° West 198 228 16,000 -246 Level Boston Center
Sat 09:54:47 AM 41.6558 -74.7914 253° West 204 235 15,500 -639 Descending Boston Center
Sat 09:55:48 AM 41.6300 -74.8769 248° West 228 262 14,700 -744 Descending Boston Center
Sat 09:56:48 AM 41.6142 -74.9606 256° West 235 270 14,000 -750 Descending New York Center
Sat 09:57:48 AM 41.5947 -75.0369 251° West 240 276 13,200 -800 Descending New York Center
Sat 09:58:48 AM 41.5769 -75.1247 255° West 240 276 12,400 -900 Descending New York Center
Sat 09:59:48 AM 41.5528 -75.2200 251° West 240 276 11,400 -900 Descending New York Center
Sat 10:00:48 AM 41.5308 -75.3044 251° West 240 276 10,600 -700 Descending New York Center
Sat 10:01:48 AM 41.5067 -75.3886 249° West 240 276 10,000 -550 Descending New York Center
Sat 10:02:48 AM 41.4831 -75.4619 247° West 240 276 9,500 -744 Descending New York Center
Sat 10:03:49 AM 41.4303 -75.5303 224° Southwest 240 276 8,500 -750 Descending New York Center
Sat 10:04:48 AM 41.3628 -75.5475 191° South 246 283 8,000 -250 Descending New York Center
Sat 10:05:49 AM 41.2906 -75.5369 174° South 254 292 8,000  Level New York Center
Sat 10:06:48 AM 41.2181 -75.5233 172° South 260 299 8,000  Level New York Center
Sat 10:07:40 AM 41.1558 -75.5164 175° South 255 293 8,000  Level New York Center
Sat 10:08:29 AM 41.0997 -75.5125 177° South 253 291 8,000 55 Level New York Center
Sat 10:09:29 AM 41.0269 -75.5072 177° South 254 292 8,100 50 Climbing New York Center
Sat 10:10:30 AM 40.9544 -75.4967 174° South 257 296 8,100  Level New York Center
Sat 10:11:30 AM 40.8822 -75.4836 172° South 261 300 8,100 -50 Level New York Center
Sat 10:12:31 AM 40.8139 -75.4733 174° South 255 293 8,000  Descending New York Center
Sat 10:13:32 AM 40.7414 -75.4575 171° South 250 288 8,100  Climbing New York Center
Sat 10:14:32 AM 40.6728 -75.4581 180° South 234 269 8,000 -513 Descending New York Center
Sat 10:16:39 AM 40.5333 -75.5000 193° South 250 288 6,500 -766 Descending Philadelphia TRACON
Sat 10:17:40 AM 40.4667 -75.5167 191° South 253 291 5,600 -744 Descending Philadelphia TRACON
Sat 10:18:40 AM 40.4000 -75.4833 159° South 269 310 5,000 -454 Descending Philadelphia TRACON
Sat 10:19:39 AM 40.3500 -75.4167 135° Southeast 260 299 4,700 -500 Descending Philadelphia TRACON
Sat 10:20:40 AM 40.2833 -75.3667 150° Southeast 259 298 4,000 -347 Descending Philadelphia TRACON
Sat 10:21:40 AM 40.2167 -75.3333 159° South 250 288 4,000  Level Philadelphia TRACON
Sat 10:22:40 AM 40.1667 -75.3000 153° Southeast 247 284 4,000  Level Philadelphia TRACON
Sat 10:23:40 AM 40.1000 -75.2667 159° South 234 269 4,000  Level Philadelphia TRACON
Sat 10:24:40 AM 40.0333 -75.2333 159° South 223 257 4,000  Level Philadelphia TRACON
Sat 10:25:40 AM 39.9833 -75.2000 153° Southeast 225 259 4,000  Level Philadelphia TRACON
Sat 10:26:40 AM 39.9333 -75.1667 153° Southeast 225 259 4,000 -250 Level Philadelphia TRACON
Sat 10:27:40 AM 39.8667 -75.1333 159° South 224 258 3,500 -950 Descending Philadelphia TRACON
Sat 10:28:40 AM 39.8167 -75.1333 180° South 222 255 2,100 -900 Descending Philadelphia TRACON
Sat 10:29:40 AM 39.8167 -75.1833 270° West 151 174 1,700 -650 Descending Philadelphia TRACON
Sat 10:30:40 AM 39.8333 -75.2167 303° West 108 124 800 -700 Descending Philadelphia TRACON
Sat 10:31:40 AM 39.8667 -75.2333 339° North 105 121 300 500 Descending Philadelphia TRACON
Sat 10:32:40 AM 39.9000 -75.2500 339° North 103 119 1,800 1,190 Climbing Philadelphia TRACON
Sat 10:33:41 AM 39.9167 -75.2667 323° Northwest 133 153 2,700 595 Climbing Philadelphia TRACON
Sat 10:34:41 AM 39.9500 -75.2167 49° Northeast 182 209 3,000 -250 Climbing Philadelphia TRACON
Sat 10:35:41 AM 39.9333 -75.1667 113° Southeast 165 190 2,200 -900 Descending Philadelphia TRACON
Sat 10:36:41 AM 39.9000 -75.1500 159° South 145 167 1,200 -850 Descending Philadelphia TRACON
Sat 10:37:41 AM 39.8833 -75.1833 237° Southwest 112 129 500 -700 Descending Philadelphia TRACON

Login

Don't have an account? Register now (free) for customized features, flight alerts, and more!